Middletown, VA

4:15 PM EDT on May 27, 2015 (GMT -0400)
Kendall Mills | | Change Station
CLOSE
Current Station
Personal Weather Station
Location: Middletown, VA
Elevation: 682 ft
Nearby Weather Stations

Elev 682 ft 39.03 °N, 78.25 °W | Updated 39 seconds ago

Clear
Clear
80.4 °F
Feels Like 84 °F
N
4.0
Wind Variable Wind from SE
Gusts 4.9 mph

Today
High -- | Low -- °F
--% Chance of Precip.
Yesterday
High -- | Low -- °F
Precip. -- in
5:51 AM 8:29 PM
Waxing Gibbous, 70% visible
Pressure 30.15 in
Visibility 10.0 miles
Clouds Scattered Clouds 12000 ft
Heat Index 84 °F
Dew Point 70 °F
Humidity 71%
Rainfall 0.20 in
Snow Depth Not available.
UV 5.0 out of 12
Pollen 6.70 out of 12
Air Quality Not available.
Flu Activity No Activity
METAR KOKV 271935Z AUTO 16004KT 10SM SCT120 26/17 A3015 RMK AO2 LTG DSNT NE

More Conditions Fewer Conditions

Pressure 30.15 in
Visibility 10.0 miles
Clouds Scattered Clouds 12000 ft
Heat Index 84 °F
Dew Point 70 °F
Humidity 71%
Rainfall 0.20 in
Snow Depth Not available.
UV 5.0 out of 12
Pollen 6.70 out of 12
Air Quality Not available.
Flu Activity No Activity
METAR KOKV 271935Z AUTO 16004KT 10SM SCT120 26/17 A3015 RMK AO2 LTG DSNT NE

More Conditions Fewer Conditions

10-Day Weather Forecast

Almanac

Astronomy

May. 27, 2015 Rise Set
Actual Time
Civil Twilight
Nautical Twilight
Astronomical Twilight
Moon
Length of Visible Light
Length of Day
Tomorrow will be .
, % of the Moon is Illuminated

Today's Extremes

State Highs State Lows

Community

WunderPhotos

Upload Photos

1,824,777 photos uploaded!

WunderBlogs® & News

Nearby

Air Quality

  Air Quality AQ Index Pollutant
Not available.

Snow Depth

Station Depth Elevation

Earthquake Activity

City Distance Mag. Time & Date
Minimum magnitude displayed is 2.5.

Coastal Water Temperatures

Place Temperature

Stations

Nearby Weather Stations

Station Location Temp. Windchill Dew Point Humidity Wind Precip. Elev Updated Type